createdAt,value
2018-03-02T00:00:53.464Z,46.90
2018-03-02T00:03:21.128Z,44.10
2018-03-02T00:05:48.687Z,42.00
2018-03-02T00:08:16.209Z,36.85
2018-03-02T00:10:44.587Z,40.58
2018-03-02T00:13:12.942Z,50.83
2018-03-02T00:15:40.554Z,44.20
2018-03-02T00:18:08.083Z,46.37
2018-03-02T00:20:36.379Z,41.78
2018-03-02T00:23:03.933Z,41.97
2018-03-02T00:25:32.218Z,45.65
2018-03-02T00:27:59.806Z,42.00
2018-03-02T00:30:27.348Z,53.33
2018-03-02T00:32:54.883Z,42.17
2018-03-02T00:35:23.194Z,44.58
2018-03-02T00:37:50.847Z,44.90
2018-03-02T00:40:18.392Z,42.75
2018-03-02T00:42:45.956Z,40.33
2018-03-02T00:45:13.516Z,42.92
2018-03-02T00:47:41.091Z,40.60
2018-03-02T00:50:08.620Z,41.88
2018-03-02T00:52:36.932Z,42.85
2018-03-02T00:55:04.460Z,44.60
2018-03-02T00:57:32.034Z,42.13
2018-03-02T00:59:59.559Z,46.42
2018-03-02T01:02:27.885Z,42.65
2018-03-02T01:04:55.393Z,46.30
2018-03-02T01:07:23.680Z,40.30
2018-03-02T01:09:52.022Z,41.15
2018-03-02T01:12:19.607Z,38.85
2018-03-02T01:14:47.891Z,43.35
2018-03-02T01:17:16.187Z,37.08
2018-03-02T01:19:43.710Z,49.33
2018-03-02T01:22:11.304Z,39.63
2018-03-02T01:24:38.836Z,45.58
2018-03-02T01:27:06.399Z,44.20
2018-03-02T01:29:34.710Z,42.03
2018-03-02T01:32:02.212Z,38.50
2018-03-02T01:34:29.752Z,44.35
2018-03-02T01:36:57.364Z,46.40
2018-03-02T01:39:25.691Z,48.25
2018-03-02T01:41:53.227Z,42.28
2018-03-02T01:44:20.781Z,43.97
2018-03-02T01:46:48.302Z,43.83
2018-03-02T01:49:15.824Z,48.58
2018-03-02T01:51:49.310Z,44.17
2018-03-02T01:54:16.868Z,43.67
2018-03-02T01:56:44.864Z,46.22
2018-03-02T01:59:12.410Z,40.17
2018-03-02T02:01:39.945Z,45.08
2018-03-02T02:04:07.518Z,47.45
2018-03-02T02:06:35.177Z,45.88
2018-03-02T02:09:02.716Z,50.35
2018-03-02T02:11:30.320Z,44.00
2018-03-02T02:13:57.887Z,52.92
2018-03-02T02:16:25.409Z,40.78
2018-03-02T02:18:52.954Z,47.80
2018-03-02T02:21:20.560Z,44.47
2018-03-02T02:23:48.072Z,46.72
2018-03-02T02:26:15.713Z,47.45
2018-03-02T02:28:43.261Z,47.17
2018-03-02T02:31:10.760Z,46.28
2018-03-02T02:33:38.431Z,47.42
2018-03-02T02:36:05.960Z,45.60
2018-03-02T02:38:34.291Z,48.75
2018-03-02T02:41:01.929Z,53.72
2018-03-02T02:43:29.469Z,50.42
2018-03-02T02:45:57.005Z,51.67
2018-03-02T02:48:24.577Z,60.72
2018-03-02T02:50:52.870Z,50.38
2018-03-02T02:53:20.425Z,62.08
2018-03-02T02:55:47.930Z,52.20
2018-03-02T02:58:15.475Z,48.17
2018-03-02T03:00:43.028Z,45.80
2018-03-02T03:03:10.582Z,56.40
2018-03-02T03:05:38.108Z,48.42
2018-03-02T03:08:06.453Z,46.22
2018-03-02T03:10:33.951Z,48.40
2018-03-02T03:13:01.504Z,48.72
2018-03-02T03:15:30.012Z,54.58
2018-03-02T03:17:57.579Z,50.17
2018-03-02T03:20:25.093Z,55.80
2018-03-02T03:22:53.506Z,44.53
2018-03-02T03:25:21.036Z,50.95
2018-03-02T03:27:49.358Z,49.92
2018-03-02T03:30:16.877Z,44.33
2018-03-02T03:32:44.443Z,49.67
2018-03-02T03:35:12.094Z,47.70
2018-03-02T03:37:40.490Z,45.58
2018-03-02T03:40:08.086Z,54.42
2018-03-02T03:42:35.648Z,56.42
2018-03-02T03:45:03.215Z,56.80
2018-03-02T03:47:30.790Z,54.38
2018-03-02T03:49:58.354Z,54.60
2018-03-02T03:52:25.910Z,47.10
2018-03-02T03:54:53.458Z,55.83
2018-03-02T03:57:21.002Z,47.92
2018-03-02T03:59:48.519Z,62.80
2018-03-02T04:02:16.094Z,57.00
2018-03-02T04:04:43.606Z,57.50
2018-03-02T04:07:11.192Z,47.60
2018-03-02T04:09:39.485Z,57.20
2018-03-02T04:12:07.025Z,58.03
2018-03-02T04:14:35.417Z,48.75
2018-03-02T04:17:03.079Z,52.38
2018-03-02T04:19:30.852Z,71.40
2018-03-02T04:21:58.408Z,48.38
2018-03-02T04:24:25.977Z,51.63
2018-03-02T04:26:53.492Z,45.03
2018-03-02T04:29:21.834Z,53.35
2018-03-02T04:31:49.360Z,58.58
2018-03-02T04:34:16.922Z,54.63
2018-03-02T04:36:44.430Z,60.30
2018-03-02T04:39:12.765Z,55.42
2018-03-02T04:41:40.271Z,59.88
2018-03-02T04:44:07.817Z,60.33
2018-03-02T04:46:36.905Z,49.40
2018-03-02T04:49:04.435Z,48.92
2018-03-02T04:51:31.984Z,53.00
2018-03-02T04:53:59.535Z,49.53
2018-03-02T04:56:27.055Z,46.10
2018-03-02T04:58:54.604Z,53.90
2018-03-02T05:01:22.233Z,51.05
2018-03-02T05:03:49.780Z,51.88
2018-03-02T05:06:17.307Z,56.47
2018-03-02T05:08:45.733Z,54.13
2018-03-02T05:11:13.286Z,59.15
2018-03-02T05:13:40.824Z,57.08
2018-03-02T05:16:09.112Z,53.42
2018-03-02T05:18:36.647Z,50.17
2018-03-02T05:21:04.980Z,47.67
2018-03-02T05:23:33.341Z,51.97
2018-03-02T05:26:00.874Z,54.42
2018-03-02T05:28:29.189Z,52.33
2018-03-02T05:30:56.728Z,58.65
2018-03-02T05:33:24.272Z,51.78
2018-03-02T05:35:51.792Z,57.80
2018-03-02T05:38:19.344Z,59.35
2018-03-02T05:40:46.867Z,51.17
2018-03-02T05:43:14.427Z,47.10
2018-03-02T05:48:15.976Z,47.80
2018-03-02T05:50:44.248Z,62.05
2018-03-02T05:53:12.545Z,58.92
2018-03-02T05:55:40.066Z,56.97
2018-03-02T05:58:07.625Z,57.53
2018-03-02T06:00:35.175Z,57.13
2018-03-02T06:03:02.750Z,62.13
2018-03-02T06:05:31.100Z,53.42
2018-03-02T06:07:58.644Z,61.20
2018-03-02T06:10:26.165Z,50.33
2018-03-02T06:12:53.726Z,56.88
2018-03-02T06:15:21.270Z,57.08
2018-03-02T06:17:49.587Z,64.57
2018-03-02T06:20:27.047Z,52.08
2018-03-02T06:22:54.560Z,61.42
2018-03-02T06:25:22.096Z,59.97
2018-03-02T06:27:49.660Z,57.10
2018-03-02T06:30:17.199Z,60.30
2018-03-02T06:32:45.005Z,57.85
2018-03-02T06:35:12.529Z,53.38
2018-03-02T06:37:40.095Z,56.78
2018-03-02T06:40:07.609Z,57.08
2018-03-02T06:42:35.934Z,72.20
2018-03-02T06:45:03.483Z,57.28
2018-03-02T06:47:31.022Z,55.28
2018-03-02T06:49:58.734Z,53.17
2018-03-02T06:52:26.360Z,50.58
2018-03-02T06:54:54.020Z,55.38
2018-03-02T06:57:21.559Z,58.30
2018-03-02T06:59:49.195Z,53.35
2018-03-02T07:02:16.742Z,61.33
2018-03-02T07:04:44.317Z,58.50
2018-03-02T07:07:11.910Z,56.05
2018-03-02T07:09:39.436Z,55.08
2018-03-02T07:12:07.000Z,58.65
2018-03-02T07:14:35.309Z,57.80
2018-03-02T07:17:02.964Z,60.45
2018-03-02T07:19:30.500Z,49.67
2018-03-02T07:21:58.827Z,61.92
2018-03-02T07:24:26.387Z,53.67
2018-03-02T07:26:54.171Z,50.92
2018-03-02T07:29:21.741Z,60.38
2018-03-02T07:31:49.254Z,57.50
2018-03-02T07:34:16.835Z,57.28
2018-03-02T07:36:44.391Z,58.55
2018-03-02T07:39:12.035Z,59.67
2018-03-02T07:41:39.601Z,63.28
2018-03-02T07:44:07.144Z,54.95
2018-03-02T07:46:34.708Z,64.57
2018-03-02T07:49:02.281Z,52.20
2018-03-02T07:51:29.846Z,62.80
2018-03-02T07:53:57.478Z,53.83
2018-03-02T07:56:25.009Z,61.30
2018-03-02T07:58:52.548Z,60.40
2018-03-02T08:01:20.075Z,54.85
2018-03-02T08:03:47.715Z,51.65
2018-03-02T08:06:15.291Z,61.37
2018-03-02T08:08:42.830Z,57.45
2018-03-02T08:11:11.112Z,60.33
2018-03-02T08:13:38.672Z,66.40
2018-03-02T08:16:06.213Z,64.78
2018-03-02T08:18:34.551Z,55.15
2018-03-02T08:21:02.070Z,56.70
2018-03-02T08:23:29.624Z,57.20
2018-03-02T08:25:57.328Z,66.03
2018-03-02T08:28:24.939Z,58.30
2018-03-02T08:30:53.245Z,59.83
2018-03-02T08:33:20.828Z,49.80
2018-03-02T08:35:48.340Z,57.33
2018-03-02T08:38:15.920Z,57.62
2018-03-02T08:40:43.465Z,63.08
2018-03-02T08:43:11.007Z,56.13
2018-03-02T08:45:39.332Z,58.67
2018-03-02T08:48:06.864Z,66.30
2018-03-02T08:50:34.398Z,57.85
2018-03-02T08:53:02.820Z,57.13
2018-03-02T08:55:30.341Z,55.30
2018-03-02T08:57:58.646Z,53.13
2018-03-02T09:00:26.152Z,60.42
2018-03-02T09:02:53.868Z,60.03
2018-03-02T09:05:21.396Z,60.08
2018-03-02T09:07:49.717Z,57.20
2018-03-02T09:10:17.271Z,58.35
2018-03-02T09:12:44.908Z,58.55
2018-03-02T09:15:12.433Z,55.78
2018-03-02T09:17:39.984Z,53.05
2018-03-02T09:20:07.597Z,56.33
2018-03-02T09:22:35.133Z,51.30
2018-03-02T09:25:03.474Z,52.83
2018-03-02T09:27:30.998Z,54.50
2018-03-02T09:29:58.549Z,58.87
2018-03-02T09:32:26.124Z,59.15
2018-03-02T09:34:53.681Z,56.72
2018-03-02T09:37:21.358Z,55.12
2018-03-02T09:39:48.928Z,54.10
2018-03-02T09:42:16.470Z,55.55
2018-03-02T09:44:44.024Z,58.67
2018-03-02T09:47:11.637Z,53.58
2018-03-02T09:49:39.927Z,63.63
2018-03-02T09:52:08.277Z,60.17
2018-03-02T09:54:35.886Z,55.70
2018-03-02T09:57:03.440Z,51.08
2018-03-02T09:59:30.996Z,55.92
2018-03-02T10:01:58.540Z,70.97
2018-03-02T10:04:26.854Z,50.00
2018-03-02T10:06:54.382Z,62.45
2018-03-02T10:09:22.678Z,57.47
2018-03-02T10:11:50.230Z,64.53
2018-03-02T10:14:17.803Z,50.78
2018-03-02T10:16:45.361Z,59.33
2018-03-02T10:19:12.930Z,65.12
2018-03-02T10:21:40.520Z,50.80
2018-03-02T10:24:08.148Z,59.22
2018-03-02T10:26:35.820Z,58.03
2018-03-02T10:29:03.343Z,62.28
2018-03-02T10:31:31.643Z,58.10
2018-03-02T10:33:59.194Z,61.22
2018-03-02T10:36:26.816Z,57.72
2018-03-02T10:38:54.359Z,58.78
2018-03-02T10:41:21.987Z,54.83
2018-03-02T10:43:49.523Z,62.97
2018-03-02T10:46:17.096Z,54.75
2018-03-02T10:48:44.608Z,53.67
2018-03-02T10:51:12.133Z,62.60
2018-03-02T10:53:39.665Z,58.70
2018-03-02T10:56:07.229Z,57.70
2018-03-02T10:58:34.744Z,56.58
2018-03-02T11:01:07.985Z,59.38
2018-03-02T11:03:35.508Z,55.70
2018-03-02T11:06:03.824Z,55.85
2018-03-02T11:08:31.340Z,53.08
2018-03-02T11:10:59.657Z,54.28
2018-03-02T11:13:27.171Z,55.78
2018-03-02T11:15:54.710Z,64.95
2018-03-02T11:18:22.320Z,52.10
2018-03-02T11:20:49.866Z,59.65
2018-03-02T11:23:18.195Z,54.92
2018-03-02T11:25:45.739Z,57.33
2018-03-02T11:28:13.290Z,54.17
2018-03-02T11:30:40.824Z,54.95
2018-03-02T11:33:09.124Z,50.15
2018-03-02T11:35:36.817Z,54.13
2018-03-02T11:38:04.415Z,56.25
2018-03-02T11:40:32.723Z,52.95
2018-03-02T11:43:00.302Z,56.65
2018-03-02T11:45:27.834Z,54.70
2018-03-02T11:47:55.435Z,56.50
2018-03-02T11:50:23.063Z,57.78
2018-03-02T11:52:54.229Z,52.40
2018-03-02T11:55:21.769Z,56.45
2018-03-02T11:57:50.862Z,53.38
2018-03-02T12:00:19.548Z,56.83
2018-03-02T12:02:47.080Z,63.30
2018-03-02T12:05:15.488Z,59.83
2018-03-02T12:07:43.103Z,56.35
2018-03-02T12:10:10.627Z,54.70
2018-03-02T12:12:38.168Z,59.03
2018-03-02T12:15:05.736Z,56.30
2018-03-02T12:17:33.342Z,57.62
2018-03-02T12:20:00.859Z,57.15
2018-03-02T12:22:28.409Z,55.65
2018-03-02T12:24:55.944Z,56.47
2018-03-02T12:27:24.278Z,57.13
2018-03-02T12:29:51.808Z,55.67
2018-03-02T12:32:19.363Z,50.83
2018-03-02T12:34:46.877Z,52.97
2018-03-02T12:37:15.189Z,54.08
2018-03-02T12:39:42.694Z,46.80
2018-03-02T12:42:10.258Z,48.38
2018-03-02T12:44:37.908Z,57.47
2018-03-02T12:47:05.523Z,55.80
2018-03-02T12:49:33.083Z,51.72
2018-03-02T12:52:00.649Z,52.85
2018-03-02T12:54:28.240Z,53.33
2018-03-02T12:56:56.499Z,53.28
2018-03-02T12:59:34.094Z,50.35
2018-03-02T13:02:01.694Z,58.28
2018-03-02T13:04:29.983Z,55.97
2018-03-02T13:06:58.320Z,58.45
2018-03-02T13:09:25.861Z,59.67
2018-03-02T13:11:53.419Z,49.38
2018-03-02T13:14:20.969Z,57.65
2018-03-02T13:16:48.519Z,55.53
2018-03-02T13:19:16.035Z,53.78
2018-03-02T13:21:43.608Z,61.37
2018-03-02T13:24:11.943Z,57.33
2018-03-02T13:26:51.315Z,51.28
2018-03-02T13:29:18.883Z,57.65
2018-03-02T13:31:46.471Z,55.63
2018-03-02T13:34:25.824Z,51.05
2018-03-02T13:36:54.702Z,51.25
2018-03-02T13:39:33.977Z,64.10
2018-03-02T13:42:12.804Z,57.72
2018-03-02T13:44:40.328Z,57.65
2018-03-02T13:47:07.896Z,58.30
2018-03-02T13:49:47.195Z,57.53
2018-03-02T13:52:15.532Z,54.60
2018-03-02T13:54:43.226Z,55.88
2018-03-02T13:57:24.657Z,59.47
2018-03-02T13:59:52.186Z,56.63
2018-03-02T14:02:32.640Z,56.88
2018-03-02T14:05:02.786Z,58.75
2018-03-02T14:07:30.819Z,56.60
2018-03-02T14:09:59.120Z,55.53
2018-03-02T14:12:27.516Z,55.47
2018-03-02T14:14:55.068Z,61.95
2018-03-02T14:17:22.839Z,54.53
2018-03-02T14:19:50.362Z,55.65
2018-03-02T14:22:18.776Z,59.95
2018-03-02T14:24:46.486Z,51.85
2018-03-02T14:27:14.045Z,59.97
2018-03-02T14:29:41.664Z,59.75
2018-03-02T14:32:09.229Z,59.47
2018-03-02T14:34:36.872Z,62.83
2018-03-02T14:37:04.476Z,52.00
2018-03-02T14:39:31.983Z,50.15
2018-03-02T14:41:59.539Z,60.05
2018-03-02T14:44:27.075Z,51.80
2018-03-02T14:46:54.594Z,62.15
2018-03-02T14:49:22.107Z,62.90
2018-03-02T14:51:50.420Z,56.70
2018-03-02T14:54:18.071Z,55.88
2018-03-02T14:56:45.677Z,56.17
2018-03-02T14:59:13.181Z,63.20
2018-03-02T15:01:40.726Z,62.35
2018-03-02T15:04:09.092Z,58.38
2018-03-02T15:06:37.442Z,55.08
2018-03-02T15:09:04.972Z,55.55
2018-03-02T15:11:32.533Z,54.22
2018-03-02T15:14:00.067Z,60.97
2018-03-02T15:16:28.383Z,59.15
2018-03-02T15:18:55.909Z,59.53
2018-03-02T15:21:23.459Z,59.45
2018-03-02T15:23:52.586Z,59.15
2018-03-02T15:26:20.123Z,62.05
2018-03-02T15:28:47.671Z,62.47
2018-03-02T15:31:16.081Z,61.83
2018-03-02T15:33:43.608Z,60.03
2018-03-02T15:36:11.921Z,58.85
2018-03-02T15:38:39.528Z,65.10
2018-03-02T15:41:07.129Z,59.50
2018-03-02T15:43:34.693Z,59.60
2018-03-02T15:46:02.311Z,56.85
2018-03-02T15:48:30.629Z,64.75
2018-03-02T15:50:58.196Z,59.00
2018-03-02T15:53:25.713Z,56.65
2018-03-02T15:55:54.036Z,59.80
2018-03-02T15:58:21.567Z,53.95
2018-03-02T16:00:49.128Z,61.50
2018-03-02T16:03:16.685Z,59.53
2018-03-02T16:05:44.980Z,59.97
2018-03-02T16:08:12.635Z,61.47
2018-03-02T16:10:40.331Z,58.75
2018-03-02T16:13:07.864Z,64.00
2018-03-02T16:15:35.420Z,62.58
2018-03-02T16:18:02.942Z,63.38
2018-03-02T16:20:31.239Z,61.35
2018-03-02T16:22:58.767Z,68.00
2018-03-02T16:25:26.377Z,64.70
2018-03-02T16:27:53.886Z,61.55
2018-03-02T16:30:21.493Z,63.22
2018-03-02T16:32:49.009Z,64.28
2018-03-02T16:35:16.566Z,54.92
2018-03-02T16:37:44.141Z,80.70
2018-03-02T16:40:12.536Z,60.78
2018-03-02T16:42:40.060Z,61.95
2018-03-02T16:45:07.628Z,60.05
2018-03-02T16:47:35.941Z,65.03
2018-03-02T16:50:03.483Z,60.78
2018-03-02T16:52:31.039Z,59.47
2018-03-02T16:54:59.392Z,62.97
2018-03-02T16:57:26.912Z,65.28
2018-03-02T16:59:54.463Z,60.08
2018-03-02T17:02:22.013Z,57.03
2018-03-02T17:04:49.561Z,59.78
2018-03-02T17:07:17.093Z,58.90
2018-03-02T17:09:44.638Z,59.42
2018-03-02T17:12:12.149Z,60.78
2018-03-02T17:14:39.871Z,63.78
2018-03-02T17:17:07.411Z,63.75
2018-03-02T17:19:34.929Z,62.08
2018-03-02T17:22:02.455Z,62.62
2018-03-02T17:24:30.759Z,55.30
2018-03-02T17:26:58.423Z,66.60
2018-03-02T17:29:25.942Z,63.83
2018-03-02T17:31:53.480Z,66.15
2018-03-02T17:34:21.142Z,59.60
2018-03-02T17:36:48.776Z,60.33
2018-03-02T17:39:16.332Z,69.25
2018-03-02T17:41:43.972Z,67.40
2018-03-02T17:44:11.541Z,70.28
2018-03-02T17:46:39.086Z,70.22
2018-03-02T17:49:07.482Z,64.78
2018-03-02T17:51:35.103Z,71.00
2018-03-02T17:54:02.615Z,70.00
2018-03-02T17:56:30.289Z,71.97
2018-03-02T17:58:57.840Z,76.18
2018-03-02T18:01:25.491Z,72.07
2018-03-02T18:03:53.056Z,72.30
2018-03-02T18:06:20.697Z,73.95
2018-03-02T18:08:48.205Z,64.25
2018-03-02T18:11:15.758Z,72.07
2018-03-02T18:13:43.288Z,59.95
2018-03-02T18:16:10.847Z,71.62
2018-03-02T18:18:38.395Z,61.67
2018-03-02T18:21:06.004Z,70.85
2018-03-02T18:23:33.544Z,64.32
2018-03-02T18:26:01.192Z,65.85
2018-03-02T18:28:28.723Z,78.70
2018-03-02T18:30:57.059Z,70.15
2018-03-02T18:33:24.599Z,75.55
2018-03-02T18:35:52.234Z,80.75
2018-03-02T18:38:19.758Z,74.62
2018-03-02T18:40:47.336Z,72.32
2018-03-02T18:43:15.686Z,73.15
2018-03-02T18:45:43.303Z,64.28
2018-03-02T18:48:10.917Z,72.25
2018-03-02T18:50:38.480Z,74.70
2018-03-02T18:53:12.072Z,82.68
2018-03-02T18:55:39.663Z,78.30
2018-03-02T18:58:07.968Z,82.15
2018-03-02T19:00:35.526Z,80.65
2018-03-02T19:03:03.080Z,83.68
2018-03-02T19:05:30.660Z,74.82
2018-03-02T19:07:58.156Z,70.72
2018-03-02T19:10:26.473Z,76.68
2018-03-02T19:12:54.106Z,88.45
2018-03-02T19:15:22.412Z,84.43
2018-03-02T19:17:50.166Z,74.10
2018-03-02T19:20:17.747Z,87.45
2018-03-02T19:22:45.301Z,102.32
2018-03-02T19:25:12.939Z,85.97
2018-03-02T19:27:40.468Z,86.93
2018-03-02T19:30:08.045Z,87.15
2018-03-02T19:32:36.351Z,92.68
2018-03-02T19:35:03.939Z,87.18
2018-03-02T19:37:31.438Z,91.07
2018-03-02T19:39:59.856Z,90.07
2018-03-02T19:42:27.370Z,88.45
2018-03-02T19:44:55.699Z,91.70
2018-03-02T19:47:23.287Z,91.93
2018-03-02T19:49:50.826Z,94.47
2018-03-02T19:52:18.360Z,97.15
2018-03-02T19:54:45.970Z,85.53
2018-03-02T19:57:13.503Z,110.30
2018-03-02T19:59:41.051Z,95.22
2018-03-02T20:02:08.603Z,89.13
2018-03-02T20:04:36.116Z,91.80
2018-03-02T20:07:04.534Z,109.95
2018-03-02T20:09:32.051Z,96.78
2018-03-02T20:11:59.619Z,101.53
2018-03-02T20:14:27.187Z,111.85
2018-03-02T20:16:55.509Z,111.50
2018-03-02T20:19:24.892Z,122.37
2018-03-02T20:21:52.464Z,110.65
2018-03-02T20:24:20.000Z,128.75
2018-03-02T20:26:48.445Z,113.82
2018-03-02T20:29:15.976Z,115.47
2018-03-02T20:31:43.546Z,128.68
2018-03-02T20:34:11.064Z,126.47
2018-03-02T20:36:38.732Z,114.78
2018-03-02T20:39:06.291Z,122.55
2018-03-02T20:41:33.913Z,123.75
2018-03-02T20:44:02.229Z,137.48
2018-03-02T20:46:30.106Z,127.97
2018-03-02T20:48:58.544Z,119.50
2018-03-02T20:51:26.917Z,127.30
2018-03-02T20:53:54.899Z,114.00
2018-03-02T20:56:23.233Z,118.32
2018-03-02T20:58:50.781Z,129.98
2018-03-02T21:01:18.351Z,130.48
2018-03-02T21:03:45.892Z,129.85
2018-03-02T21:06:13.464Z,140.48
2018-03-02T21:08:41.204Z,132.60
2018-03-02T21:11:08.784Z,116.72
2018-03-02T21:13:36.424Z,125.85
2018-03-02T21:16:03.958Z,124.90
2018-03-02T21:18:32.276Z,104.45
2018-03-02T21:20:59.827Z,125.18
2018-03-02T21:23:27.371Z,123.65
2018-03-02T21:25:54.900Z,118.57
2018-03-02T21:28:22.443Z,115.65
2018-03-02T21:30:49.967Z,124.60
2018-03-02T21:33:17.520Z,131.50
2018-03-02T21:35:45.049Z,124.22
2018-03-02T21:38:13.379Z,134.63
2018-03-02T21:40:40.948Z,138.43
2018-03-02T21:43:08.496Z,134.02
2018-03-02T21:45:36.062Z,135.63
2018-03-02T21:48:03.685Z,143.00
2018-03-02T21:50:31.245Z,131.05
2018-03-02T21:52:58.791Z,153.82
2018-03-02T21:55:26.330Z,144.93
2018-03-02T21:57:54.703Z,147.95
2018-03-02T22:00:22.252Z,147.02
2018-03-02T22:02:49.821Z,141.02
2018-03-02T22:05:17.399Z,141.23
2018-03-02T22:07:45.735Z,144.95
2018-03-02T22:10:13.298Z,157.40
2018-03-02T22:12:40.859Z,141.93
2018-03-02T22:15:10.645Z,136.98
2018-03-02T22:17:38.195Z,143.65
2018-03-02T22:20:06.547Z,137.15
2018-03-02T22:22:35.798Z,146.52
2018-03-02T22:25:03.387Z,142.65
2018-03-02T22:27:31.000Z,128.18
2018-03-02T22:29:58.560Z,144.30
2018-03-02T22:32:26.147Z,148.05
2018-03-02T22:34:53.663Z,136.55
2018-03-02T22:37:21.216Z,139.02
2018-03-02T22:39:48.782Z,149.68
2018-03-02T22:42:16.328Z,138.93
2018-03-02T22:44:54.741Z,151.70
2018-03-02T22:47:22.328Z,153.70
2018-03-02T22:49:59.815Z,141.45
2018-03-02T22:52:27.360Z,145.15
2018-03-02T22:54:54.931Z,137.12
2018-03-02T22:57:22.449Z,154.23
2018-03-02T22:59:50.056Z,140.05
2018-03-02T23:02:18.454Z,147.73
2018-03-02T23:04:46.167Z,154.73
2018-03-02T23:07:14.490Z,152.98
2018-03-02T23:09:42.060Z,127.47
2018-03-02T23:12:09.602Z,143.98
2018-03-02T23:14:37.169Z,154.50
2018-03-02T23:17:04.753Z,153.68
2018-03-02T23:19:32.295Z,143.43
2018-03-02T23:21:59.820Z,138.85
2018-03-02T23:24:27.554Z,152.87
2018-03-02T23:26:55.833Z,147.62
2018-03-02T23:29:24.135Z,159.90
2018-03-02T23:31:51.880Z,148.82
2018-03-02T23:34:20.262Z,168.10
2018-03-02T23:36:49.293Z,143.85
2018-03-02T23:39:16.852Z,147.60
2018-03-02T23:41:44.386Z,151.93
2018-03-02T23:44:11.923Z,162.90
2018-03-02T23:46:40.217Z,160.75
2018-03-02T23:49:08.615Z,152.73
2018-03-02T23:51:36.843Z,152.65
2018-03-02T23:54:04.437Z,157.62
2018-03-02T23:56:32.008Z,170.60
2018-03-02T23:58:59.567Z,163.23
